sensor_id;sensor_type;location;lat;lon;timestamp;P1;durP1;ratioP1;P2;durP2;ratioP2
13799;SDS011;6971;50.028;9.258;2023-11-18T00:04:19;6.53;;;3.43;;
13799;SDS011;6971;50.028;9.258;2023-11-18T00:09:20;5.83;;;3.70;;
13799;SDS011;6971;50.028;9.258;2023-11-18T00:14:20;7.73;;;4.53;;
13799;SDS011;6971;50.028;9.258;2023-11-18T00:19:21;7.20;;;3.63;;
13799;SDS011;6971;50.028;9.258;2023-11-18T00:24:21;5.77;;;3.33;;
13799;SDS011;6971;50.028;9.258;2023-11-18T00:29:22;7.47;;;3.33;;
13799;SDS011;6971;50.028;9.258;2023-11-18T00:34:23;9.70;;;3.17;;
13799;SDS011;6971;50.028;9.258;2023-11-18T00:39:23;3.63;;;2.60;;
13799;SDS011;6971;50.028;9.258;2023-11-18T00:44:24;12.27;;;4.90;;
13799;SDS011;6971;50.028;9.258;2023-11-18T00:49:24;9.57;;;4.57;;
13799;SDS011;6971;50.028;9.258;2023-11-18T00:54:25;8.67;;;3.70;;
13799;SDS011;6971;50.028;9.258;2023-11-18T00:59:27;9.93;;;3.30;;
13799;SDS011;6971;50.028;9.258;2023-11-18T01:04:27;4.63;;;2.23;;
13799;SDS011;6971;50.028;9.258;2023-11-18T01:09:27;4.33;;;2.87;;
13799;SDS011;6971;50.028;9.258;2023-11-18T01:14:28;16.13;;;6.03;;
13799;SDS011;6971;50.028;9.258;2023-11-18T01:19:28;5.40;;;3.47;;
13799;SDS011;6971;50.028;9.258;2023-11-18T01:24:29;6.10;;;3.20;;
13799;SDS011;6971;50.028;9.258;2023-11-18T01:29:29;5.27;;;2.70;;
13799;SDS011;6971;50.028;9.258;2023-11-18T01:34:29;11.97;;;4.67;;
13799;SDS011;6971;50.028;9.258;2023-11-18T01:39:30;9.47;;;4.83;;
13799;SDS011;6971;50.028;9.258;2023-11-18T01:44:31;7.00;;;3.87;;
13799;SDS011;6971;50.028;9.258;2023-11-18T01:49:34;5.07;;;3.13;;
13799;SDS011;6971;50.028;9.258;2023-11-18T01:54:39;11.23;;;4.03;;
13799;SDS011;6971;50.028;9.258;2023-11-18T01:59:40;8.03;;;4.17;;
13799;SDS011;6971;50.028;9.258;2023-11-18T02:04:40;15.80;;;4.80;;
13799;SDS011;6971;50.028;9.258;2023-11-18T02:09:41;8.30;;;4.23;;
13799;SDS011;6971;50.028;9.258;2023-11-18T02:14:43;8.27;;;3.93;;
13799;SDS011;6971;50.028;9.258;2023-11-18T02:19:45;13.73;;;5.20;;
13799;SDS011;6971;50.028;9.258;2023-11-18T02:24:46;9.13;;;4.17;;
13799;SDS011;6971;50.028;9.258;2023-11-18T02:29:46;5.57;;;3.30;;
13799;SDS011;6971;50.028;9.258;2023-11-18T02:35:10;11.40;;;4.63;;
13799;SDS011;6971;50.028;9.258;2023-11-18T02:40:11;5.43;;;3.90;;
13799;SDS011;6971;50.028;9.258;2023-11-18T02:45:16;8.07;;;4.47;;
13799;SDS011;6971;50.028;9.258;2023-11-18T02:50:17;11.40;;;3.97;;
13799;SDS011;6971;50.028;9.258;2023-11-18T02:55:19;4.67;;;2.90;;
13799;SDS011;6971;50.028;9.258;2023-11-18T03:00:21;5.70;;;3.70;;
13799;SDS011;6971;50.028;9.258;2023-11-18T03:05:22;5.57;;;3.33;;
13799;SDS011;6971;50.028;9.258;2023-11-18T03:10:22;7.10;;;3.70;;
13799;SDS011;6971;50.028;9.258;2023-11-18T03:15:23;14.53;;;5.23;;
13799;SDS011;6971;50.028;9.258;2023-11-18T03:20:23;12.30;;;4.20;;
13799;SDS011;6971;50.028;9.258;2023-11-18T03:25:23;11.30;;;5.33;;
13799;SDS011;6971;50.028;9.258;2023-11-18T03:30:24;21.07;;;5.20;;
13799;SDS011;6971;50.028;9.258;2023-11-18T03:35:24;8.97;;;4.17;;
13799;SDS011;6971;50.028;9.258;2023-11-18T03:40:25;10.10;;;5.10;;
13799;SDS011;6971;50.028;9.258;2023-11-18T03:45:27;8.40;;;3.90;;
13799;SDS011;6971;50.028;9.258;2023-11-18T03:50:28;10.90;;;3.70;;
13799;SDS011;6971;50.028;9.258;2023-11-18T03:55:28;8.87;;;3.83;;
13799;SDS011;6971;50.028;9.258;2023-11-18T04:00:29;10.50;;;4.20;;
13799;SDS011;6971;50.028;9.258;2023-11-18T04:05:29;11.93;;;4.47;;
13799;SDS011;6971;50.028;9.258;2023-11-18T04:10:30;10.53;;;4.90;;
13799;SDS011;6971;50.028;9.258;2023-11-18T04:15:30;12.70;;;5.97;;
13799;SDS011;6971;50.028;9.258;2023-11-18T04:20:31;9.50;;;4.53;;
13799;SDS011;6971;50.028;9.258;2023-11-18T04:25:32;6.17;;;3.27;;
13799;SDS011;6971;50.028;9.258;2023-11-18T04:30:33;8.30;;;4.97;;
13799;SDS011;6971;50.028;9.258;2023-11-18T04:35:33;7.77;;;4.10;;
13799;SDS011;6971;50.028;9.258;2023-11-18T04:40:34;4.80;;;3.70;;
13799;SDS011;6971;50.028;9.258;2023-11-18T04:45:35;6.33;;;3.67;;
13799;SDS011;6971;50.028;9.258;2023-11-18T04:50:35;5.87;;;3.90;;
13799;SDS011;6971;50.028;9.258;2023-11-18T04:55:35;8.40;;;3.73;;
13799;SDS011;6971;50.028;9.258;2023-11-18T05:00:36;7.67;;;3.70;;
13799;SDS011;6971;50.028;9.258;2023-11-18T05:05:38;7.37;;;3.80;;
13799;SDS011;6971;50.028;9.258;2023-11-18T05:10:39;6.77;;;3.10;;
13799;SDS011;6971;50.028;9.258;2023-11-18T05:15:39;6.30;;;3.83;;
13799;SDS011;6971;50.028;9.258;2023-11-18T05:20:40;4.47;;;2.93;;
13799;SDS011;6971;50.028;9.258;2023-11-18T05:25:41;11.17;;;4.17;;
13799;SDS011;6971;50.028;9.258;2023-11-18T05:30:43;14.80;;;4.23;;
13799;SDS011;6971;50.028;9.258;2023-11-18T05:35:46;4.63;;;3.07;;
13799;SDS011;6971;50.028;9.258;2023-11-18T05:40:49;9.13;;;4.37;;
13799;SDS011;6971;50.028;9.258;2023-11-18T05:45:56;7.13;;;3.50;;
13799;SDS011;6971;50.028;9.258;2023-11-18T05:51:25;10.63;;;4.83;;
13799;SDS011;6971;50.028;9.258;2023-11-18T05:56:26;6.03;;;3.40;;
13799;SDS011;6971;50.028;9.258;2023-11-18T06:01:26;8.13;;;3.87;;
13799;SDS011;6971;50.028;9.258;2023-11-18T06:06:27;9.83;;;5.00;;
13799;SDS011;6971;50.028;9.258;2023-11-18T06:11:27;5.60;;;2.70;;
13799;SDS011;6971;50.028;9.258;2023-11-18T06:16:31;5.10;;;3.10;;
13799;SDS011;6971;50.028;9.258;2023-11-18T06:21:32;6.40;;;3.50;;
13799;SDS011;6971;50.028;9.258;2023-11-18T06:26:32;10.23;;;4.73;;
13799;SDS011;6971;50.028;9.258;2023-11-18T06:31:36;8.93;;;4.57;;
13799;SDS011;6971;50.028;9.258;2023-11-18T06:36:36;8.77;;;4.30;;
13799;SDS011;6971;50.028;9.258;2023-11-18T06:41:36;13.87;;;5.63;;
13799;SDS011;6971;50.028;9.258;2023-11-18T06:46:48;16.90;;;6.47;;
13799;SDS011;6971;50.028;9.258;2023-11-18T06:51:50;18.00;;;7.77;;
13799;SDS011;6971;50.028;9.258;2023-11-18T06:56:51;16.83;;;7.00;;
13799;SDS011;6971;50.028;9.258;2023-11-18T07:01:52;22.07;;;7.83;;
13799;SDS011;6971;50.028;9.258;2023-11-18T07:06:53;12.80;;;6.33;;
13799;SDS011;6971;50.028;9.258;2023-11-18T07:11:54;21.13;;;7.33;;
13799;SDS011;6971;50.028;9.258;2023-11-18T07:16:56;20.60;;;7.57;;
13799;SDS011;6971;50.028;9.258;2023-11-18T07:21:56;16.27;;;6.17;;
13799;SDS011;6971;50.028;9.258;2023-11-18T07:26:56;13.20;;;6.97;;
13799;SDS011;6971;50.028;9.258;2023-11-18T07:31:59;20.13;;;9.00;;
13799;SDS011;6971;50.028;9.258;2023-11-18T07:37:01;15.90;;;7.63;;
13799;SDS011;6971;50.028;9.258;2023-11-18T07:42:02;12.40;;;5.90;;
13799;SDS011;6971;50.028;9.258;2023-11-18T07:47:02;12.23;;;6.57;;
13799;SDS011;6971;50.028;9.258;2023-11-18T07:52:04;16.17;;;6.53;;
13799;SDS011;6971;50.028;9.258;2023-11-18T07:57:06;15.13;;;7.00;;
13799;SDS011;6971;50.028;9.258;2023-11-18T08:02:10;12.20;;;6.17;;
13799;SDS011;6971;50.028;9.258;2023-11-18T08:07:10;11.83;;;5.73;;
13799;SDS011;6971;50.028;9.258;2023-11-18T08:12:11;14.47;;;5.03;;
13799;SDS011;6971;50.028;9.258;2023-11-18T08:17:11;15.23;;;9.40;;
13799;SDS011;6971;50.028;9.258;2023-11-18T08:22:13;14.80;;;9.53;;
13799;SDS011;6971;50.028;9.258;2023-11-18T08:27:18;10.90;;;6.37;;
13799;SDS011;6971;50.028;9.258;2023-11-18T08:32:19;18.10;;;7.40;;
13799;SDS011;6971;50.028;9.258;2023-11-18T08:37:19;13.23;;;7.47;;
13799;SDS011;6971;50.028;9.258;2023-11-18T08:42:21;16.57;;;7.13;;
13799;SDS011;6971;50.028;9.258;2023-11-18T08:47:22;16.40;;;7.87;;
13799;SDS011;6971;50.028;9.258;2023-11-18T08:52:22;10.23;;;6.00;;
13799;SDS011;6971;50.028;9.258;2023-11-18T08:57:23;12.73;;;5.90;;
13799;SDS011;6971;50.028;9.258;2023-11-18T09:02:25;14.43;;;6.87;;
13799;SDS011;6971;50.028;9.258;2023-11-18T09:07:25;12.53;;;6.07;;
13799;SDS011;6971;50.028;9.258;2023-11-18T09:12:26;13.13;;;7.07;;
13799;SDS011;6971;50.028;9.258;2023-11-18T09:17:27;12.27;;;6.87;;
13799;SDS011;6971;50.028;9.258;2023-11-18T09:22:28;15.57;;;7.70;;
13799;SDS011;6971;50.028;9.258;2023-11-18T09:27:28;14.83;;;6.73;;
13799;SDS011;6971;50.028;9.258;2023-11-18T09:32:29;10.97;;;5.93;;
13799;SDS011;6971;50.028;9.258;2023-11-18T09:37:34;16.33;;;7.53;;
13799;SDS011;6971;50.028;9.258;2023-11-18T09:42:34;13.77;;;7.60;;
13799;SDS011;6971;50.028;9.258;2023-11-18T09:47:37;15.70;;;8.37;;
13799;SDS011;6971;50.028;9.258;2023-11-18T09:52:47;13.33;;;7.33;;
13799;SDS011;6971;50.028;9.258;2023-11-18T09:57:55;13.03;;;8.00;;
13799;SDS011;6971;50.028;9.258;2023-11-18T10:02:59;12.43;;;7.23;;
13799;SDS011;6971;50.028;9.258;2023-11-18T10:08:01;10.33;;;6.40;;
13799;SDS011;6971;50.028;9.258;2023-11-18T10:13:05;11.63;;;7.33;;
13799;SDS011;6971;50.028;9.258;2023-11-18T10:18:21;14.03;;;6.73;;
13799;SDS011;6971;50.028;9.258;2023-11-18T10:23:22;9.90;;;6.43;;
13799;SDS011;6971;50.028;9.258;2023-11-18T10:33:27;10.33;;;4.83;;
13799;SDS011;6971;50.028;9.258;2023-11-18T10:38:31;7.73;;;5.00;;
13799;SDS011;6971;50.028;9.258;2023-11-18T10:43:32;6.10;;;4.40;;
13799;SDS011;6971;50.028;9.258;2023-11-18T10:48:35;12.03;;;6.97;;
13799;SDS011;6971;50.028;9.258;2023-11-18T10:53:36;14.60;;;8.37;;
13799;SDS011;6971;50.028;9.258;2023-11-18T10:58:37;20.83;;;11.20;;
13799;SDS011;6971;50.028;9.258;2023-11-18T11:03:52;18.60;;;11.07;;
13799;SDS011;6971;50.028;9.258;2023-11-18T11:08:56;12.77;;;7.97;;
13799;SDS011;6971;50.028;9.258;2023-11-18T11:14:00;9.20;;;6.23;;
13799;SDS011;6971;50.028;9.258;2023-11-18T11:19:04;13.23;;;7.90;;
13799;SDS011;6971;50.028;9.258;2023-11-18T11:24:11;10.93;;;6.20;;
13799;SDS011;6971;50.028;9.258;2023-11-18T11:29:36;6.33;;;5.13;;
13799;SDS011;6971;50.028;9.258;2023-11-18T11:34:54;18.90;;;10.67;;
13799;SDS011;6971;50.028;9.258;2023-11-18T11:39:57;6.37;;;4.07;;
13799;SDS011;6971;50.028;9.258;2023-11-18T11:44:58;10.83;;;6.40;;
13799;SDS011;6971;50.028;9.258;2023-11-18T11:50:01;7.73;;;4.77;;
13799;SDS011;6971;50.028;9.258;2023-11-18T12:00:32;49.07;;;16.90;;
13799;SDS011;6971;50.028;9.258;2023-11-18T12:05:35;25.07;;;10.97;;
13799;SDS011;6971;50.028;9.258;2023-11-18T12:10:35;11.40;;;5.93;;
13799;SDS011;6971;50.028;9.258;2023-11-18T12:15:48;8.93;;;5.90;;
13799;SDS011;6971;50.028;9.258;2023-11-18T12:20:58;20.00;;;8.13;;
13799;SDS011;6971;50.028;9.258;2023-11-18T12:26:02;29.77;;;11.13;;
13799;SDS011;6971;50.028;9.258;2023-11-18T12:31:41;31.40;;;12.17;;
13799;SDS011;6971;50.028;9.258;2023-11-18T12:36:56;23.60;;;10.67;;
13799;SDS011;6971;50.028;9.258;2023-11-18T12:42:10;29.20;;;12.97;;
13799;SDS011;6971;50.028;9.258;2023-11-18T12:47:36;20.73;;;10.23;;
13799;SDS011;6971;50.028;9.258;2023-11-18T12:52:40;12.83;;;6.83;;
13799;SDS011;6971;50.028;9.258;2023-11-18T12:57:45;14.63;;;6.30;;
13799;SDS011;6971;50.028;9.258;2023-11-18T13:02:48;10.17;;;6.53;;
13799;SDS011;6971;50.028;9.258;2023-11-18T13:07:49;13.37;;;7.17;;
13799;SDS011;6971;50.028;9.258;2023-11-18T13:12:49;8.73;;;5.63;;
13799;SDS011;6971;50.028;9.258;2023-11-18T13:18:03;4.77;;;3.33;;
13799;SDS011;6971;50.028;9.258;2023-11-18T13:23:08;8.33;;;5.93;;
13799;SDS011;6971;50.028;9.258;2023-11-18T13:28:09;3.50;;;3.20;;
13799;SDS011;6971;50.028;9.258;2023-11-18T13:33:13;4.30;;;3.10;;
13799;SDS011;6971;50.028;9.258;2023-11-18T13:38:14;2.77;;;2.33;;
13799;SDS011;6971;50.028;9.258;2023-11-18T13:43:14;3.10;;;2.80;;
13799;SDS011;6971;50.028;9.258;2023-11-18T13:48:15;4.67;;;3.27;;
13799;SDS011;6971;50.028;9.258;2023-11-18T13:53:17;8.63;;;4.37;;
13799;SDS011;6971;50.028;9.258;2023-11-18T13:58:17;10.00;;;4.50;;
13799;SDS011;6971;50.028;9.258;2023-11-18T14:03:19;3.53;;;2.60;;
13799;SDS011;6971;50.028;9.258;2023-11-18T14:08:20;5.87;;;3.70;;
13799;SDS011;6971;50.028;9.258;2023-11-18T14:13:21;4.27;;;2.87;;
13799;SDS011;6971;50.028;9.258;2023-11-18T14:18:22;4.47;;;3.23;;
13799;SDS011;6971;50.028;9.258;2023-11-18T14:23:22;5.37;;;3.07;;
13799;SDS011;6971;50.028;9.258;2023-11-18T14:28:23;5.73;;;3.83;;
13799;SDS011;6971;50.028;9.258;2023-11-18T14:33:26;7.77;;;3.67;;
13799;SDS011;6971;50.028;9.258;2023-11-18T14:38:27;4.93;;;3.37;;
13799;SDS011;6971;50.028;9.258;2023-11-18T14:43:27;7.07;;;3.27;;
13799;SDS011;6971;50.028;9.258;2023-11-18T14:48:28;7.10;;;4.67;;
13799;SDS011;6971;50.028;9.258;2023-11-18T14:53:28;7.67;;;4.07;;
13799;SDS011;6971;50.028;9.258;2023-11-18T14:58:28;9.37;;;5.57;;
13799;SDS011;6971;50.028;9.258;2023-11-18T15:03:29;4.67;;;3.20;;
13799;SDS011;6971;50.028;9.258;2023-11-18T15:08:31;3.70;;;2.60;;
13799;SDS011;6971;50.028;9.258;2023-11-18T15:13:31;5.40;;;3.33;;
13799;SDS011;6971;50.028;9.258;2023-11-18T15:18:31;6.60;;;3.60;;
13799;SDS011;6971;50.028;9.258;2023-11-18T15:23:32;5.43;;;3.60;;
13799;SDS011;6971;50.028;9.258;2023-11-18T15:28:32;7.30;;;3.40;;
13799;SDS011;6971;50.028;9.258;2023-11-18T15:33:32;17.73;;;7.97;;
13799;SDS011;6971;50.028;9.258;2023-11-18T15:38:34;6.67;;;3.73;;
13799;SDS011;6971;50.028;9.258;2023-11-18T15:43:35;5.87;;;3.77;;
13799;SDS011;6971;50.028;9.258;2023-11-18T15:48:36;5.93;;;3.30;;
13799;SDS011;6971;50.028;9.258;2023-11-18T15:53:36;9.80;;;5.17;;
13799;SDS011;6971;50.028;9.258;2023-11-18T15:58:36;5.83;;;3.40;;
13799;SDS011;6971;50.028;9.258;2023-11-18T16:03:37;18.80;;;9.87;;
13799;SDS011;6971;50.028;9.258;2023-11-18T16:08:37;16.37;;;6.87;;
13799;SDS011;6971;50.028;9.258;2023-11-18T16:13:38;7.53;;;4.23;;
13799;SDS011;6971;50.028;9.258;2023-11-18T16:18:38;10.37;;;3.77;;
13799;SDS011;6971;50.028;9.258;2023-11-18T16:23:39;10.70;;;4.07;;
13799;SDS011;6971;50.028;9.258;2023-11-18T16:28:39;3.03;;;2.30;;
13799;SDS011;6971;50.028;9.258;2023-11-18T16:33:39;5.30;;;3.27;;
13799;SDS011;6971;50.028;9.258;2023-11-18T16:38:43;20.00;;;7.17;;
13799;SDS011;6971;50.028;9.258;2023-11-18T16:43:43;17.47;;;7.60;;
13799;SDS011;6971;50.028;9.258;2023-11-18T16:48:46;40.10;;;15.60;;
13799;SDS011;6971;50.028;9.258;2023-11-18T16:53:46;4.10;;;2.63;;
13799;SDS011;6971;50.028;9.258;2023-11-18T16:58:47;3.73;;;2.87;;
13799;SDS011;6971;50.028;9.258;2023-11-18T17:03:47;10.57;;;5.57;;
13799;SDS011;6971;50.028;9.258;2023-11-18T17:08:48;9.30;;;5.23;;
13799;SDS011;6971;50.028;9.258;2023-11-18T17:13:48;25.67;;;11.53;;
13799;SDS011;6971;50.028;9.258;2023-11-18T17:18:49;7.13;;;5.07;;
13799;SDS011;6971;50.028;9.258;2023-11-18T17:23:49;5.87;;;4.20;;
13799;SDS011;6971;50.028;9.258;2023-11-18T17:28:50;6.53;;;4.33;;
13799;SDS011;6971;50.028;9.258;2023-11-18T17:33:50;7.03;;;4.47;;
13799;SDS011;6971;50.028;9.258;2023-11-18T17:38:51;3.37;;;2.63;;
13799;SDS011;6971;50.028;9.258;2023-11-18T17:43:51;5.33;;;2.83;;
13799;SDS011;6971;50.028;9.258;2023-11-18T17:48:53;5.43;;;4.10;;
13799;SDS011;6971;50.028;9.258;2023-11-18T17:53:53;13.67;;;8.20;;
13799;SDS011;6971;50.028;9.258;2023-11-18T17:58:53;17.57;;;8.03;;
13799;SDS011;6971;50.028;9.258;2023-11-18T18:03:54;4.87;;;3.27;;
13799;SDS011;6971;50.028;9.258;2023-11-18T18:08:54;5.70;;;4.10;;
13799;SDS011;6971;50.028;9.258;2023-11-18T18:13:55;5.90;;;4.57;;
13799;SDS011;6971;50.028;9.258;2023-11-18T18:18:55;5.03;;;3.70;;
13799;SDS011;6971;50.028;9.258;2023-11-18T18:23:56;7.10;;;3.33;;
13799;SDS011;6971;50.028;9.258;2023-11-18T18:28:57;5.27;;;3.73;;
13799;SDS011;6971;50.028;9.258;2023-11-18T18:33:57;8.77;;;5.47;;
13799;SDS011;6971;50.028;9.258;2023-11-18T18:38:58;4.37;;;2.67;;
13799;SDS011;6971;50.028;9.258;2023-11-18T18:43:58;5.30;;;3.30;;
13799;SDS011;6971;50.028;9.258;2023-11-18T18:48:58;6.80;;;3.70;;
13799;SDS011;6971;50.028;9.258;2023-11-18T18:53:59;2.60;;;2.03;;
13799;SDS011;6971;50.028;9.258;2023-11-18T18:58:59;5.60;;;3.47;;
13799;SDS011;6971;50.028;9.258;2023-11-18T19:03:59;4.07;;;2.30;;
13799;SDS011;6971;50.028;9.258;2023-11-18T19:09:00;3.23;;;2.50;;
13799;SDS011;6971;50.028;9.258;2023-11-18T19:14:01;2.57;;;1.97;;
13799;SDS011;6971;50.028;9.258;2023-11-18T19:19:02;4.00;;;2.93;;
13799;SDS011;6971;50.028;9.258;2023-11-18T19:24:02;7.47;;;4.60;;
13799;SDS011;6971;50.028;9.258;2023-11-18T19:29:03;5.67;;;3.70;;
13799;SDS011;6971;50.028;9.258;2023-11-18T19:34:06;14.70;;;5.93;;
13799;SDS011;6971;50.028;9.258;2023-11-18T19:39:06;11.23;;;5.53;;
13799;SDS011;6971;50.028;9.258;2023-11-18T19:44:07;15.77;;;7.20;;
13799;SDS011;6971;50.028;9.258;2023-11-18T19:49:08;11.07;;;5.50;;
13799;SDS011;6971;50.028;9.258;2023-11-18T19:54:09;8.53;;;5.87;;
13799;SDS011;6971;50.028;9.258;2023-11-18T19:59:10;34.63;;;17.60;;
13799;SDS011;6971;50.028;9.258;2023-11-18T20:04:11;14.47;;;8.43;;
13799;SDS011;6971;50.028;9.258;2023-11-18T20:09:13;17.17;;;9.70;;
13799;SDS011;6971;50.028;9.258;2023-11-18T20:14:13;9.23;;;5.33;;
13799;SDS011;6971;50.028;9.258;2023-11-18T20:19:14;5.13;;;3.50;;
13799;SDS011;6971;50.028;9.258;2023-11-18T20:24:15;17.43;;;8.20;;
13799;SDS011;6971;50.028;9.258;2023-11-18T20:29:16;3.03;;;2.13;;
13799;SDS011;6971;50.028;9.258;2023-11-18T20:34:16;3.03;;;2.20;;
13799;SDS011;6971;50.028;9.258;2023-11-18T20:39:18;2.00;;;1.77;;
13799;SDS011;6971;50.028;9.258;2023-11-18T20:44:18;2.87;;;2.20;;
13799;SDS011;6971;50.028;9.258;2023-11-18T20:49:18;7.23;;;5.10;;
13799;SDS011;6971;50.028;9.258;2023-11-18T20:54:18;3.63;;;2.67;;
13799;SDS011;6971;50.028;9.258;2023-11-18T20:59:19;3.17;;;2.17;;
13799;SDS011;6971;50.028;9.258;2023-11-18T21:04:19;3.63;;;2.47;;
13799;SDS011;6971;50.028;9.258;2023-11-18T21:09:20;3.13;;;2.43;;
13799;SDS011;6971;50.028;9.258;2023-11-18T21:14:21;7.57;;;5.30;;
13799;SDS011;6971;50.028;9.258;2023-11-18T21:19:21;3.10;;;2.67;;
13799;SDS011;6971;50.028;9.258;2023-11-18T21:24:23;4.07;;;2.20;;
13799;SDS011;6971;50.028;9.258;2023-11-18T21:29:23;2.60;;;2.30;;
13799;SDS011;6971;50.028;9.258;2023-11-18T21:34:24;2.17;;;1.87;;
13799;SDS011;6971;50.028;9.258;2023-11-18T21:39:24;2.27;;;1.90;;
13799;SDS011;6971;50.028;9.258;2023-11-18T21:44:25;2.10;;;1.90;;
13799;SDS011;6971;50.028;9.258;2023-11-18T21:49:26;2.30;;;2.10;;
13799;SDS011;6971;50.028;9.258;2023-11-18T21:54:26;2.30;;;1.77;;
13799;SDS011;6971;50.028;9.258;2023-11-18T21:59:30;3.20;;;1.93;;
13799;SDS011;6971;50.028;9.258;2023-11-18T22:04:30;2.07;;;1.87;;
13799;SDS011;6971;50.028;9.258;2023-11-18T22:09:30;2.37;;;1.60;;
13799;SDS011;6971;50.028;9.258;2023-11-18T22:14:31;2.30;;;2.00;;
13799;SDS011;6971;50.028;9.258;2023-11-18T22:19:34;2.17;;;1.80;;
13799;SDS011;6971;50.028;9.258;2023-11-18T22:24:35;1.93;;;1.73;;
13799;SDS011;6971;50.028;9.258;2023-11-18T22:29:36;1.50;;;1.40;;
13799;SDS011;6971;50.028;9.258;2023-11-18T22:34:37;1.83;;;1.67;;
13799;SDS011;6971;50.028;9.258;2023-11-18T22:39:38;2.03;;;1.73;;
13799;SDS011;6971;50.028;9.258;2023-11-18T22:44:39;1.97;;;1.70;;
13799;SDS011;6971;50.028;9.258;2023-11-18T22:49:45;2.70;;;1.60;;
13799;SDS011;6971;50.028;9.258;2023-11-18T22:54:45;1.53;;;1.40;;
13799;SDS011;6971;50.028;9.258;2023-11-18T22:59:46;1.90;;;1.50;;
13799;SDS011;6971;50.028;9.258;2023-11-18T23:04:47;2.07;;;1.77;;
13799;SDS011;6971;50.028;9.258;2023-11-18T23:09:47;2.00;;;1.63;;
13799;SDS011;6971;50.028;9.258;2023-11-18T23:14:47;2.57;;;1.60;;
13799;SDS011;6971;50.028;9.258;2023-11-18T23:19:52;1.63;;;1.40;;
13799;SDS011;6971;50.028;9.258;2023-11-18T23:24:52;2.30;;;1.70;;
13799;SDS011;6971;50.028;9.258;2023-11-18T23:29:52;1.60;;;1.20;;
13799;SDS011;6971;50.028;9.258;2023-11-18T23:34:53;2.07;;;1.73;;
13799;SDS011;6971;50.028;9.258;2023-11-18T23:39:53;1.90;;;1.80;;
13799;SDS011;6971;50.028;9.258;2023-11-18T23:44:54;2.80;;;2.00;;
13799;SDS011;6971;50.028;9.258;2023-11-18T23:49:55;3.97;;;2.20;;
13799;SDS011;6971;50.028;9.258;2023-11-18T23:54:57;3.53;;;2.43;;
13799;SDS011;6971;50.028;9.258;2023-11-18T23:59:57;2.27;;;1.97;;
